sensor_id;sensor_type;location;lat;lon;timestamp;temperature;humidity
58309;DHT22;44117;57.142;24.826;2022-09-30T00:01:43;8.90;99.90
58309;DHT22;44117;57.142;24.826;2022-09-30T00:04:17;8.90;99.90
58309;DHT22;44117;57.142;24.826;2022-09-30T00:06:45;8.80;99.90
58309;DHT22;44117;57.142;24.826;2022-09-30T00:09:13;8.90;99.90
58309;DHT22;44117;57.142;24.826;2022-09-30T00:11:41;8.80;99.90
58309;DHT22;44117;57.142;24.826;2022-09-30T00:14:15;8.80;99.90
58309;DHT22;44117;57.142;24.826;2022-09-30T00:16:48;8.80;99.90
58309;DHT22;44117;57.142;24.826;2022-09-30T00:19:16;8.80;99.90
58309;DHT22;44117;57.142;24.826;2022-09-30T00:21:44;8.80;99.90
58309;DHT22;44117;57.142;24.826;2022-09-30T00:24:11;8.80;99.90
58309;DHT22;44117;57.142;24.826;2022-09-30T00:26:38;8.80;99.90
58309;DHT22;44117;57.142;24.826;2022-09-30T00:29:06;8.80;99.90
58309;DHT22;44117;57.142;24.826;2022-09-30T00:31:34;8.80;99.90
58309;DHT22;44117;57.142;24.826;2022-09-30T00:34:02;8.80;99.90
58309;DHT22;44117;57.142;24.826;2022-09-30T00:36:42;8.80;99.90
58309;DHT22;44117;57.142;24.826;2022-09-30T00:39:22;8.80;99.90
58309;DHT22;44117;57.142;24.826;2022-09-30T00:41:53;8.80;99.90
58309;DHT22;44117;57.142;24.826;2022-09-30T00:44:50;8.90;99.90
58309;DHT22;44117;57.142;24.826;2022-09-30T00:49:45;8.80;99.90
58309;DHT22;44117;57.142;24.826;2022-09-30T00:52:13;8.80;99.90
58309;DHT22;44117;57.142;24.826;2022-09-30T00:54:40;8.90;99.90
58309;DHT22;44117;57.142;24.826;2022-09-30T00:57:08;8.90;99.90
58309;DHT22;44117;57.142;24.826;2022-09-30T00:59:42;8.80;99.90
58309;DHT22;44117;57.142;24.826;2022-09-30T01:02:11;8.80;99.90
58309;DHT22;44117;57.142;24.826;2022-09-30T01:04:41;8.80;99.90
58309;DHT22;44117;57.142;24.826;2022-09-30T01:07:10;8.90;99.90
58309;DHT22;44117;57.142;24.826;2022-09-30T01:09:39;8.90;99.90
58309;DHT22;44117;57.142;24.826;2022-09-30T01:12:17;8.90;99.90
58309;DHT22;44117;57.142;24.826;2022-09-30T01:14:46;8.90;99.90
58309;DHT22;44117;57.142;24.826;2022-09-30T01:28:44;8.80;99.90
58309;DHT22;44117;57.142;24.826;2022-09-30T01:39:20;8.90;99.90
58309;DHT22;44117;57.142;24.826;2022-09-30T01:47:41;8.90;99.90
58309;DHT22;44117;57.142;24.826;2022-09-30T01:50:23;8.90;99.90
58309;DHT22;44117;57.142;24.826;2022-09-30T01:53:05;8.90;99.90
58309;DHT22;44117;57.142;24.826;2022-09-30T01:58:20;8.90;99.90
58309;DHT22;44117;57.142;24.826;2022-09-30T02:00:56;8.90;99.90
58309;DHT22;44117;57.142;24.826;2022-09-30T02:03:44;9.00;99.90
58309;DHT22;44117;57.142;24.826;2022-09-30T02:06:24;9.00;99.90
58309;DHT22;44117;57.142;24.826;2022-09-30T02:08:57;8.90;99.90
58309;DHT22;44117;57.142;24.826;2022-09-30T02:11:27;9.00;99.90
58309;DHT22;44117;57.142;24.826;2022-09-30T02:14:12;9.00;99.90
58309;DHT22;44117;57.142;24.826;2022-09-30T02:16:48;9.00;99.90
58309;DHT22;44117;57.142;24.826;2022-09-30T02:21:59;9.00;99.90
58309;DHT22;44117;57.142;24.826;2022-09-30T02:24:33;9.00;99.90
58309;DHT22;44117;57.142;24.826;2022-09-30T02:27:08;9.00;99.90
58309;DHT22;44117;57.142;24.826;2022-09-30T02:29:42;9.00;99.90
58309;DHT22;44117;57.142;24.826;2022-09-30T02:32:25;9.00;99.90
58309;DHT22;44117;57.142;24.826;2022-09-30T02:35:07;9.00;99.90
58309;DHT22;44117;57.142;24.826;2022-09-30T02:37:38;9.00;99.90
58309;DHT22;44117;57.142;24.826;2022-09-30T02:40:18;9.10;99.90
58309;DHT22;44117;57.142;24.826;2022-09-30T02:42:47;9.00;99.90
58309;DHT22;44117;57.142;24.826;2022-09-30T02:45:20;9.00;99.90
58309;DHT22;44117;57.142;24.826;2022-09-30T02:47:52;9.10;99.90
58309;DHT22;44117;57.142;24.826;2022-09-30T02:56:11;9.00;99.90
58309;DHT22;44117;57.142;24.826;2022-09-30T02:58:41;9.00;99.90
58309;DHT22;44117;57.142;24.826;2022-09-30T03:01:12;9.00;99.90
58309;DHT22;44117;57.142;24.826;2022-09-30T03:03:52;9.00;99.90
58309;DHT22;44117;57.142;24.826;2022-09-30T03:06:21;8.90;99.90
58309;DHT22;44117;57.142;24.826;2022-09-30T03:08:50;9.00;99.90
58309;DHT22;44117;57.142;24.826;2022-09-30T03:11:22;9.00;99.90
58309;DHT22;44117;57.142;24.826;2022-09-30T03:14:05;9.00;99.90
58309;DHT22;44117;57.142;24.826;2022-09-30T03:30:58;8.90;99.90
58309;DHT22;44117;57.142;24.826;2022-09-30T03:36:26;8.80;99.90
58309;DHT22;44117;57.142;24.826;2022-09-30T03:42:14;8.80;99.90
58309;DHT22;44117;57.142;24.826;2022-09-30T03:45:24;8.80;99.90
58309;DHT22;44117;57.142;24.826;2022-09-30T03:47:58;8.80;99.90
58309;DHT22;44117;57.142;24.826;2022-09-30T03:50:28;8.80;99.90
58309;DHT22;44117;57.142;24.826;2022-09-30T03:52:57;8.80;99.90
58309;DHT22;44117;57.142;24.826;2022-09-30T03:55:25;8.80;99.90
58309;DHT22;44117;57.142;24.826;2022-09-30T03:57:53;8.70;99.90
58309;DHT22;44117;57.142;24.826;2022-09-30T04:00:20;8.70;99.90
58309;DHT22;44117;57.142;24.826;2022-09-30T04:02:47;8.60;99.90
58309;DHT22;44117;57.142;24.826;2022-09-30T04:05:15;8.60;99.90
58309;DHT22;44117;57.142;24.826;2022-09-30T04:07:42;8.60;99.90
58309;DHT22;44117;57.142;24.826;2022-09-30T04:10:10;8.60;99.90
58309;DHT22;44117;57.142;24.826;2022-09-30T04:12:38;8.60;99.90
58309;DHT22;44117;57.142;24.826;2022-09-30T04:15:05;8.50;99.90
58309;DHT22;44117;57.142;24.826;2022-09-30T04:17:33;8.50;99.90
58309;DHT22;44117;57.142;24.826;2022-09-30T04:20:00;8.40;99.90
58309;DHT22;44117;57.142;24.826;2022-09-30T04:22:29;8.40;99.90
58309;DHT22;44117;57.142;24.826;2022-09-30T04:24:56;8.50;99.90
58309;DHT22;44117;57.142;24.826;2022-09-30T04:27:23;8.50;99.90
58309;DHT22;44117;57.142;24.826;2022-09-30T04:29:51;8.50;99.90
58309;DHT22;44117;57.142;24.826;2022-09-30T04:32:21;8.40;99.90
58309;DHT22;44117;57.142;24.826;2022-09-30T04:34:48;8.40;99.90
58309;DHT22;44117;57.142;24.826;2022-09-30T04:37:16;8.50;99.90
58309;DHT22;44117;57.142;24.826;2022-09-30T04:39:43;8.40;99.90
58309;DHT22;44117;57.142;24.826;2022-09-30T04:42:10;8.50;99.90
58309;DHT22;44117;57.142;24.826;2022-09-30T04:44:38;8.50;99.90
58309;DHT22;44117;57.142;24.826;2022-09-30T04:47:05;8.50;99.90
58309;DHT22;44117;57.142;24.826;2022-09-30T04:49:32;8.50;99.90
58309;DHT22;44117;57.142;24.826;2022-09-30T04:52:00;8.40;99.90
58309;DHT22;44117;57.142;24.826;2022-09-30T04:54:27;8.40;99.90
58309;DHT22;44117;57.142;24.826;2022-09-30T04:56:54;8.40;99.90
58309;DHT22;44117;57.142;24.826;2022-09-30T04:59:22;8.40;99.90
58309;DHT22;44117;57.142;24.826;2022-09-30T05:01:49;8.40;99.90
58309;DHT22;44117;57.142;24.826;2022-09-30T05:04:17;8.40;99.90
58309;DHT22;44117;57.142;24.826;2022-09-30T05:06:44;8.40;99.90
58309;DHT22;44117;57.142;24.826;2022-09-30T05:09:11;8.30;99.90
58309;DHT22;44117;57.142;24.826;2022-09-30T05:11:39;8.30;99.90
58309;DHT22;44117;57.142;24.826;2022-09-30T05:14:08;8.30;99.90
58309;DHT22;44117;57.142;24.826;2022-09-30T05:16:36;8.30;99.90
58309;DHT22;44117;57.142;24.826;2022-09-30T05:19:03;8.30;99.90
58309;DHT22;44117;57.142;24.826;2022-09-30T05:21:31;8.30;99.90
58309;DHT22;44117;57.142;24.826;2022-09-30T05:23:58;8.30;99.90
58309;DHT22;44117;57.142;24.826;2022-09-30T05:26:25;8.20;99.90
58309;DHT22;44117;57.142;24.826;2022-09-30T05:28:53;8.20;99.90
58309;DHT22;44117;57.142;24.826;2022-09-30T05:31:20;8.20;99.90
58309;DHT22;44117;57.142;24.826;2022-09-30T05:33:48;8.20;99.90
58309;DHT22;44117;57.142;24.826;2022-09-30T05:36:20;8.20;99.90
58309;DHT22;44117;57.142;24.826;2022-09-30T05:38:51;8.20;99.90
58309;DHT22;44117;57.142;24.826;2022-09-30T05:41:19;8.30;99.90
58309;DHT22;44117;57.142;24.826;2022-09-30T05:43:47;8.30;99.90
58309;DHT22;44117;57.142;24.826;2022-09-30T05:46:16;8.30;99.90
58309;DHT22;44117;57.142;24.826;2022-09-30T05:48:44;8.30;99.90
58309;DHT22;44117;57.142;24.826;2022-09-30T05:51:11;8.40;99.90
58309;DHT22;44117;57.142;24.826;2022-09-30T05:53:39;8.30;99.90
58309;DHT22;44117;57.142;24.826;2022-09-30T05:56:09;8.30;99.90
58309;DHT22;44117;57.142;24.826;2022-09-30T05:58:37;8.40;99.90
58309;DHT22;44117;57.142;24.826;2022-09-30T06:01:08;8.30;99.90
58309;DHT22;44117;57.142;24.826;2022-09-30T06:03:39;8.50;99.90
58309;DHT22;44117;57.142;24.826;2022-09-30T06:06:07;8.40;99.90
58309;DHT22;44117;57.142;24.826;2022-09-30T06:08:35;8.30;99.90
58309;DHT22;44117;57.142;24.826;2022-09-30T06:11:08;8.30;99.90
58309;DHT22;44117;57.142;24.826;2022-09-30T06:13:39;8.30;99.90
58309;DHT22;44117;57.142;24.826;2022-09-30T06:16:08;8.30;99.90
58309;DHT22;44117;57.142;24.826;2022-09-30T06:18:36;8.30;99.90
58309;DHT22;44117;57.142;24.826;2022-09-30T06:21:05;8.40;99.90
58309;DHT22;44117;57.142;24.826;2022-09-30T06:23:33;8.40;99.90
58309;DHT22;44117;57.142;24.826;2022-09-30T06:26:03;8.60;99.90
58309;DHT22;44117;57.142;24.826;2022-09-30T06:28:30;8.80;99.90
58309;DHT22;44117;57.142;24.826;2022-09-30T06:31:02;9.00;99.90
58309;DHT22;44117;57.142;24.826;2022-09-30T06:33:30;8.90;99.90
58309;DHT22;44117;57.142;24.826;2022-09-30T06:35:58;8.70;99.90
58309;DHT22;44117;57.142;24.826;2022-09-30T06:38:28;8.60;99.90
58309;DHT22;44117;57.142;24.826;2022-09-30T06:40:58;8.70;99.90
58309;DHT22;44117;57.142;24.826;2022-09-30T06:43:26;8.70;99.90
58309;DHT22;44117;57.142;24.826;2022-09-30T06:45:53;8.80;99.90
58309;DHT22;44117;57.142;24.826;2022-09-30T06:48:37;9.00;99.90
58309;DHT22;44117;57.142;24.826;2022-09-30T06:51:05;8.90;99.90
58309;DHT22;44117;57.142;24.826;2022-09-30T06:53:36;9.10;99.90
58309;DHT22;44117;57.142;24.826;2022-09-30T06:56:05;9.00;99.90
58309;DHT22;44117;57.142;24.826;2022-09-30T06:58:33;8.90;99.90
58309;DHT22;44117;57.142;24.826;2022-09-30T07:01:03;8.80;99.90
58309;DHT22;44117;57.142;24.826;2022-09-30T07:03:33;8.70;99.90
58309;DHT22;44117;57.142;24.826;2022-09-30T07:06:03;8.80;99.90
58309;DHT22;44117;57.142;24.826;2022-09-30T07:08:32;9.00;99.90
58309;DHT22;44117;57.142;24.826;2022-09-30T07:11:02;9.40;99.90
58309;DHT22;44117;57.142;24.826;2022-09-30T07:13:30;9.70;99.90
58309;DHT22;44117;57.142;24.826;2022-09-30T07:15:59;9.60;99.90
58309;DHT22;44117;57.142;24.826;2022-09-30T07:18:26;9.30;99.90
58309;DHT22;44117;57.142;24.826;2022-09-30T07:20:55;9.20;99.90
58309;DHT22;44117;57.142;24.826;2022-09-30T07:23:23;9.10;99.90
58309;DHT22;44117;57.142;24.826;2022-09-30T07:25:55;9.10;99.90
58309;DHT22;44117;57.142;24.826;2022-09-30T07:28:28;9.10;99.90
58309;DHT22;44117;57.142;24.826;2022-09-30T07:31:01;9.10;99.90
58309;DHT22;44117;57.142;24.826;2022-09-30T07:33:52;9.20;99.90
58309;DHT22;44117;57.142;24.826;2022-09-30T07:36:22;9.30;99.90
58309;DHT22;44117;57.142;24.826;2022-09-30T07:39:03;9.40;99.90
58309;DHT22;44117;57.142;24.826;2022-09-30T07:41:36;9.40;99.90
58309;DHT22;44117;57.142;24.826;2022-09-30T07:44:08;9.60;99.90
58309;DHT22;44117;57.142;24.826;2022-09-30T07:46:36;9.90;99.90
58309;DHT22;44117;57.142;24.826;2022-09-30T07:49:11;9.80;99.90
58309;DHT22;44117;57.142;24.826;2022-09-30T07:51:41;9.40;99.90
58309;DHT22;44117;57.142;24.826;2022-09-30T07:54:17;9.70;99.90
58309;DHT22;44117;57.142;24.826;2022-09-30T07:56:45;10.10;99.90
58309;DHT22;44117;57.142;24.826;2022-09-30T07:59:36;9.90;99.90
58309;DHT22;44117;57.142;24.826;2022-09-30T08:02:04;9.70;99.90
58309;DHT22;44117;57.142;24.826;2022-09-30T08:04:32;9.70;99.90
58309;DHT22;44117;57.142;24.826;2022-09-30T08:07:01;9.80;99.90
58309;DHT22;44117;57.142;24.826;2022-09-30T08:09:29;10.30;99.90
58309;DHT22;44117;57.142;24.826;2022-09-30T08:11:57;10.50;99.90
58309;DHT22;44117;57.142;24.826;2022-09-30T08:14:26;10.90;99.90
58309;DHT22;44117;57.142;24.826;2022-09-30T08:16:54;11.30;99.90
58309;DHT22;44117;57.142;24.826;2022-09-30T08:19:25;11.20;99.90
58309;DHT22;44117;57.142;24.826;2022-09-30T08:21:53;11.20;99.90
58309;DHT22;44117;57.142;24.826;2022-09-30T08:24:21;10.90;99.90
58309;DHT22;44117;57.142;24.826;2022-09-30T08:26:49;11.10;99.90
58309;DHT22;44117;57.142;24.826;2022-09-30T08:29:16;10.70;99.90
58309;DHT22;44117;57.142;24.826;2022-09-30T08:31:51;10.70;99.90
58309;DHT22;44117;57.142;24.826;2022-09-30T08:34:19;10.60;99.90
58309;DHT22;44117;57.142;24.826;2022-09-30T08:36:47;10.80;99.90
58309;DHT22;44117;57.142;24.826;2022-09-30T08:39:14;10.80;99.90
58309;DHT22;44117;57.142;24.826;2022-09-30T08:44:30;11.00;99.90
58309;DHT22;44117;57.142;24.826;2022-09-30T08:47:32;11.00;99.90
58309;DHT22;44117;57.142;24.826;2022-09-30T08:52:40;10.80;99.90
58309;DHT22;44117;57.142;24.826;2022-09-30T08:55:26;10.80;99.90
58309;DHT22;44117;57.142;24.826;2022-09-30T08:57:55;10.80;99.90
58309;DHT22;44117;57.142;24.826;2022-09-30T09:00:24;11.20;99.90
58309;DHT22;44117;57.142;24.826;2022-09-30T09:02:57;11.10;99.90
58309;DHT22;44117;57.142;24.826;2022-09-30T09:05:55;11.60;99.90
58309;DHT22;44117;57.142;24.826;2022-09-30T09:19:20;11.80;99.90
58309;DHT22;44117;57.142;24.826;2022-09-30T09:21:56;11.90;99.90
58309;DHT22;44117;57.142;24.826;2022-09-30T09:24:32;12.00;99.90
58309;DHT22;44117;57.142;24.826;2022-09-30T09:27:00;12.20;99.90
58309;DHT22;44117;57.142;24.826;2022-09-30T09:32:23;13.60;99.90
58309;DHT22;44117;57.142;24.826;2022-09-30T09:34:57;14.40;99.90
58309;DHT22;44117;57.142;24.826;2022-09-30T09:42:54;13.10;99.90
58309;DHT22;44117;57.142;24.826;2022-09-30T09:45:53;12.90;99.90
58309;DHT22;44117;57.142;24.826;2022-09-30T09:48:22;12.80;99.90
58309;DHT22;44117;57.142;24.826;2022-09-30T09:51:02;12.90;99.90
58309;DHT22;44117;57.142;24.826;2022-09-30T09:53:44;13.00;99.90
58309;DHT22;44117;57.142;24.826;2022-09-30T09:56:19;12.80;99.90
58309;DHT22;44117;57.142;24.826;2022-09-30T09:59:03;12.40;99.90
58309;DHT22;44117;57.142;24.826;2022-09-30T10:01:32;13.20;99.90
58309;DHT22;44117;57.142;24.826;2022-09-30T10:04:29;13.10;99.90
58309;DHT22;44117;57.142;24.826;2022-09-30T10:07:12;12.80;99.90
58309;DHT22;44117;57.142;24.826;2022-09-30T10:09:41;12.70;99.90
58309;DHT22;44117;57.142;24.826;2022-09-30T10:17:28;12.20;99.90
58309;DHT22;44117;57.142;24.826;2022-09-30T10:20:22;13.00;99.90
58309;DHT22;44117;57.142;24.826;2022-09-30T10:23:41;14.60;99.90
58309;DHT22;44117;57.142;24.826;2022-09-30T10:25:58;14.90;99.80
58309;DHT22;44117;57.142;24.826;2022-09-30T10:28:28;15.70;98.50
58309;DHT22;44117;57.142;24.826;2022-09-30T10:36:03;15.20;97.00
58309;DHT22;44117;57.142;24.826;2022-09-30T10:38:31;16.40;95.90
58309;DHT22;44117;57.142;24.826;2022-09-30T10:41:02;15.40;95.80
58309;DHT22;44117;57.142;24.826;2022-09-30T10:43:35;15.80;96.30
58309;DHT22;44117;57.142;24.826;2022-09-30T10:46:04;15.80;95.90
58309;DHT22;44117;57.142;24.826;2022-09-30T10:48:52;15.10;95.70
58309;DHT22;44117;57.142;24.826;2022-09-30T10:51:26;14.20;96.50
58309;DHT22;44117;57.142;24.826;2022-09-30T10:53:55;13.80;97.30
58309;DHT22;44117;57.142;24.826;2022-09-30T10:56:33;13.60;98.00
58309;DHT22;44117;57.142;24.826;2022-09-30T10:59:02;13.40;99.00
58309;DHT22;44117;57.142;24.826;2022-09-30T11:01:38;14.00;98.40
58309;DHT22;44117;57.142;24.826;2022-09-30T11:04:25;15.20;96.30
58309;DHT22;44117;57.142;24.826;2022-09-30T11:07:00;15.20;95.10
58309;DHT22;44117;57.142;24.826;2022-09-30T11:09:36;14.20;96.20
58309;DHT22;44117;57.142;24.826;2022-09-30T11:12:30;13.90;97.10
58309;DHT22;44117;57.142;24.826;2022-09-30T11:15:02;13.70;97.60
58309;DHT22;44117;57.142;24.826;2022-09-30T11:20:17;13.20;98.20
58309;DHT22;44117;57.142;24.826;2022-09-30T11:23:00;13.10;99.10
58309;DHT22;44117;57.142;24.826;2022-09-30T11:31:32;14.50;96.90
58309;DHT22;44117;57.142;24.826;2022-09-30T11:34:17;15.60;94.90
58309;DHT22;44117;57.142;24.826;2022-09-30T11:39:59;13.80;96.80
58309;DHT22;44117;57.142;24.826;2022-09-30T11:42:47;13.30;97.30
58309;DHT22;44117;57.142;24.826;2022-09-30T11:50:58;15.50;96.10
58309;DHT22;44117;57.142;24.826;2022-09-30T11:58:48;19.10;88.20
58309;DHT22;44117;57.142;24.826;2022-09-30T12:01:29;20.00;84.60
58309;DHT22;44117;57.142;24.826;2022-09-30T12:04:05;20.60;83.20
58309;DHT22;44117;57.142;24.826;2022-09-30T12:06:57;20.90;80.20
58309;DHT22;44117;57.142;24.826;2022-09-30T12:09:36;21.00;79.00
58309;DHT22;44117;57.142;24.826;2022-09-30T12:12:09;20.50;80.10
58309;DHT22;44117;57.142;24.826;2022-09-30T12:14:50;19.60;78.90
58309;DHT22;44117;57.142;24.826;2022-09-30T12:17:43;19.30;81.00
58309;DHT22;44117;57.142;24.826;2022-09-30T12:23:26;19.50;80.00
58309;DHT22;44117;57.142;24.826;2022-09-30T12:26:03;19.90;81.60
58309;DHT22;44117;57.142;24.826;2022-09-30T12:28:55;21.50;79.40
58309;DHT22;44117;57.142;24.826;2022-09-30T12:34:51;20.50;76.40
58309;DHT22;44117;57.142;24.826;2022-09-30T12:37:44;21.20;76.20
58309;DHT22;44117;57.142;24.826;2022-09-30T12:40:51;22.90;72.60
58309;DHT22;44117;57.142;24.826;2022-09-30T12:43:52;23.40;70.90
58309;DHT22;44117;57.142;24.826;2022-09-30T12:46:39;22.90;71.00
58309;DHT22;44117;57.142;24.826;2022-09-30T12:49:15;22.50;70.80
58309;DHT22;44117;57.142;24.826;2022-09-30T12:51:49;22.20;71.50
58309;DHT22;44117;57.142;24.826;2022-09-30T12:54:29;22.10;69.90
58309;DHT22;44117;57.142;24.826;2022-09-30T12:57:01;20.70;72.40
58309;DHT22;44117;57.142;24.826;2022-09-30T12:59:35;21.00;72.10
58309;DHT22;44117;57.142;24.826;2022-09-30T13:02:05;21.50;72.50
58309;DHT22;44117;57.142;24.826;2022-09-30T13:04:36;22.40;70.30
58309;DHT22;44117;57.142;24.826;2022-09-30T13:07:11;24.50;69.00
58309;DHT22;44117;57.142;24.826;2022-09-30T13:10:44;24.00;66.20
58309;DHT22;44117;57.142;24.826;2022-09-30T13:13:30;23.90;67.00
58309;DHT22;44117;57.142;24.826;2022-09-30T13:16:00;21.40;70.70
58309;DHT22;44117;57.142;24.826;2022-09-30T13:34:20;24.90;62.50
58309;DHT22;44117;57.142;24.826;2022-09-30T13:39:20;24.70;63.40
58309;DHT22;44117;57.142;24.826;2022-09-30T13:50:06;21.80;69.20
58309;DHT22;44117;57.142;24.826;2022-09-30T13:52:38;20.20;71.00
58309;DHT22;44117;57.142;24.826;2022-09-30T13:55:20;19.10;73.20
58309;DHT22;44117;57.142;24.826;2022-09-30T13:58:04;18.10;75.80
58309;DHT22;44117;57.142;24.826;2022-09-30T14:00:58;17.20;78.50
58309;DHT22;44117;57.142;24.826;2022-09-30T14:07:03;20.50;73.20
58309;DHT22;44117;57.142;24.826;2022-09-30T14:09:23;22.50;70.50
58309;DHT22;44117;57.142;24.826;2022-09-30T14:12:10;24.90;65.30
58309;DHT22;44117;57.142;24.826;2022-09-30T14:17:48;22.30;68.70
58309;DHT22;44117;57.142;24.826;2022-09-30T14:23:01;19.90;73.10
58309;DHT22;44117;57.142;24.826;2022-09-30T14:25:34;20.90;72.50
58309;DHT22;44117;57.142;24.826;2022-09-30T14:28:11;22.00;68.70
58309;DHT22;44117;57.142;24.826;2022-09-30T14:30:41;20.90;68.60
58309;DHT22;44117;57.142;24.826;2022-09-30T14:33:29;20.60;71.40
58309;DHT22;44117;57.142;24.826;2022-09-30T14:36:00;21.70;68.90
58309;DHT22;44117;57.142;24.826;2022-09-30T14:38:31;21.00;69.30
58309;DHT22;44117;57.142;24.826;2022-09-30T14:41:02;21.60;70.90
58309;DHT22;44117;57.142;24.826;2022-09-30T14:43:39;22.90;68.20
58309;DHT22;44117;57.142;24.826;2022-09-30T14:46:25;23.80;65.20
58309;DHT22;44117;57.142;24.826;2022-09-30T14:48:56;25.10;63.80
58309;DHT22;44117;57.142;24.826;2022-09-30T14:51:25;25.40;63.10
58309;DHT22;44117;57.142;24.826;2022-09-30T14:53:56;25.50;62.20
58309;DHT22;44117;57.142;24.826;2022-09-30T14:56:33;25.10;62.20
58309;DHT22;44117;57.142;24.826;2022-09-30T14:59:16;24.00;63.30
58309;DHT22;44117;57.142;24.826;2022-09-30T15:01:45;22.30;65.80
58309;DHT22;44117;57.142;24.826;2022-09-30T15:04:23;21.10;68.30
58309;DHT22;44117;57.142;24.826;2022-09-30T15:06:52;19.70;70.50
58309;DHT22;44117;57.142;24.826;2022-09-30T15:09:52;18.50;73.40
58309;DHT22;44117;57.142;24.826;2022-09-30T15:12:21;17.50;75.70
58309;DHT22;44117;57.142;24.826;2022-09-30T15:17:25;16.30;79.40
58309;DHT22;44117;57.142;24.826;2022-09-30T15:19:54;15.80;80.60
58309;DHT22;44117;57.142;24.826;2022-09-30T15:22:24;15.50;82.40
58309;DHT22;44117;57.142;24.826;2022-09-30T15:24:53;15.30;82.30
58309;DHT22;44117;57.142;24.826;2022-09-30T15:27:30;15.10;82.70
58309;DHT22;44117;57.142;24.826;2022-09-30T15:30:24;15.00;83.00
58309;DHT22;44117;57.142;24.826;2022-09-30T15:33:03;14.80;83.60
58309;DHT22;44117;57.142;24.826;2022-09-30T15:35:31;14.60;85.30
58309;DHT22;44117;57.142;24.826;2022-09-30T15:38:21;14.70;85.90
58309;DHT22;44117;57.142;24.826;2022-09-30T15:41:09;15.20;84.90
58309;DHT22;44117;57.142;24.826;2022-09-30T15:46:25;15.00;83.80
58309;DHT22;44117;57.142;24.826;2022-09-30T15:49:02;14.70;84.90
58309;DHT22;44117;57.142;24.826;2022-09-30T15:54:01;14.00;87.20
58309;DHT22;44117;57.142;24.826;2022-09-30T15:56:34;13.70;90.10
58309;DHT22;44117;57.142;24.826;2022-09-30T15:59:11;13.40;89.50
58309;DHT22;44117;57.142;24.826;2022-09-30T16:01:51;13.20;91.30
58309;DHT22;44117;57.142;24.826;2022-09-30T16:04:23;12.90;92.00
58309;DHT22;44117;57.142;24.826;2022-09-30T16:09:35;12.40;93.10
58309;DHT22;44117;57.142;24.826;2022-09-30T16:14:51;12.00;94.70
58309;DHT22;44117;57.142;24.826;2022-09-30T16:20:00;11.70;96.00
58309;DHT22;44117;57.142;24.826;2022-09-30T16:22:57;11.50;96.80
58309;DHT22;44117;57.142;24.826;2022-09-30T16:25:31;11.40;97.60
58309;DHT22;44117;57.142;24.826;2022-09-30T16:28:11;11.00;98.60
58309;DHT22;44117;57.142;24.826;2022-09-30T16:30:45;10.90;99.90
58309;DHT22;44117;57.142;24.826;2022-09-30T16:33:13;10.70;99.90
58309;DHT22;44117;57.142;24.826;2022-09-30T16:35:41;10.70;99.90
58309;DHT22;44117;57.142;24.826;2022-09-30T16:38:14;10.70;99.90
58309;DHT22;44117;57.142;24.826;2022-09-30T16:40:42;10.50;99.90
58309;DHT22;44117;57.142;24.826;2022-09-30T16:43:09;10.50;99.90
58309;DHT22;44117;57.142;24.826;2022-09-30T16:45:38;10.50;99.90
58309;DHT22;44117;57.142;24.826;2022-09-30T16:48:15;10.50;99.90
58309;DHT22;44117;57.142;24.826;2022-09-30T16:53:22;10.50;99.90
58309;DHT22;44117;57.142;24.826;2022-09-30T16:55:49;10.40;99.90
58309;DHT22;44117;57.142;24.826;2022-09-30T16:58:16;10.40;99.90
58309;DHT22;44117;57.142;24.826;2022-09-30T17:00:45;10.30;99.90
58309;DHT22;44117;57.142;24.826;2022-09-30T17:03:17;10.20;99.90
58309;DHT22;44117;57.142;24.826;2022-09-30T17:05:46;10.10;99.90
58309;DHT22;44117;57.142;24.826;2022-09-30T17:08:20;10.00;99.90
58309;DHT22;44117;57.142;24.826;2022-09-30T17:10:48;9.90;99.90
58309;DHT22;44117;57.142;24.826;2022-09-30T17:13:18;9.80;99.90
58309;DHT22;44117;57.142;24.826;2022-09-30T17:15:50;9.80;99.90
58309;DHT22;44117;57.142;24.826;2022-09-30T17:18:18;9.70;99.90
58309;DHT22;44117;57.142;24.826;2022-09-30T17:20:47;9.70;99.90
58309;DHT22;44117;57.142;24.826;2022-09-30T17:23:20;9.70;99.90
58309;DHT22;44117;57.142;24.826;2022-09-30T17:25:48;9.70;99.90
58309;DHT22;44117;57.142;24.826;2022-09-30T17:28:16;9.70;99.90
58309;DHT22;44117;57.142;24.826;2022-09-30T17:30:45;9.50;99.90
58309;DHT22;44117;57.142;24.826;2022-09-30T17:33:14;9.30;99.90
58309;DHT22;44117;57.142;24.826;2022-09-30T17:35:41;9.10;99.90
58309;DHT22;44117;57.142;24.826;2022-09-30T17:38:12;9.10;99.90
58309;DHT22;44117;57.142;24.826;2022-09-30T17:40:39;9.00;99.90
58309;DHT22;44117;57.142;24.826;2022-09-30T17:43:25;9.00;99.90
58309;DHT22;44117;57.142;24.826;2022-09-30T17:45:57;8.90;99.90
58309;DHT22;44117;57.142;24.826;2022-09-30T17:48:25;8.80;99.90
58309;DHT22;44117;57.142;24.826;2022-09-30T17:50:53;8.80;99.90
58309;DHT22;44117;57.142;24.826;2022-09-30T17:53:21;8.80;99.90
58309;DHT22;44117;57.142;24.826;2022-09-30T17:56:04;8.90;99.90
58309;DHT22;44117;57.142;24.826;2022-09-30T17:58:36;8.90;99.90
58309;DHT22;44117;57.142;24.826;2022-09-30T18:01:07;8.80;99.90
58309;DHT22;44117;57.142;24.826;2022-09-30T18:03:35;8.80;99.90
58309;DHT22;44117;57.142;24.826;2022-09-30T18:06:03;8.70;99.90
58309;DHT22;44117;57.142;24.826;2022-09-30T18:08:30;8.60;99.90
58309;DHT22;44117;57.142;24.826;2022-09-30T18:10:57;8.40;99.90
58309;DHT22;44117;57.142;24.826;2022-09-30T18:13:26;8.30;99.90
58309;DHT22;44117;57.142;24.826;2022-09-30T18:15:54;8.30;99.90
58309;DHT22;44117;57.142;24.826;2022-09-30T18:18:21;8.40;99.90
58309;DHT22;44117;57.142;24.826;2022-09-30T18:20:49;8.30;99.90
58309;DHT22;44117;57.142;24.826;2022-09-30T18:23:17;8.20;99.90
58309;DHT22;44117;57.142;24.826;2022-09-30T18:25:45;8.20;99.90
58309;DHT22;44117;57.142;24.826;2022-09-30T18:28:12;8.20;99.90
58309;DHT22;44117;57.142;24.826;2022-09-30T18:30:40;8.10;99.90
58309;DHT22;44117;57.142;24.826;2022-09-30T18:33:08;8.00;99.90
58309;DHT22;44117;57.142;24.826;2022-09-30T18:35:38;7.90;99.90
58309;DHT22;44117;57.142;24.826;2022-09-30T18:38:05;8.00;99.90
58309;DHT22;44117;57.142;24.826;2022-09-30T18:40:33;8.10;99.90
58309;DHT22;44117;57.142;24.826;2022-09-30T18:43:02;8.00;99.90
58309;DHT22;44117;57.142;24.826;2022-09-30T18:45:33;7.80;99.90
58309;DHT22;44117;57.142;24.826;2022-09-30T18:48:03;7.80;99.90
58309;DHT22;44117;57.142;24.826;2022-09-30T18:50:31;7.70;99.90
58309;DHT22;44117;57.142;24.826;2022-09-30T18:53:00;7.70;99.90
58309;DHT22;44117;57.142;24.826;2022-09-30T18:55:38;7.70;99.90
58309;DHT22;44117;57.142;24.826;2022-09-30T18:58:06;7.50;99.90
58309;DHT22;44117;57.142;24.826;2022-09-30T19:00:33;7.50;99.90